createdAt,value
2018-06-20T00:00:15.572Z,1025.67
2018-06-20T00:01:43.247Z,1025.69
2018-06-20T00:03:10.442Z,1025.69
2018-06-20T00:04:37.985Z,1025.69
2018-06-20T00:06:05.361Z,1025.68
2018-06-20T00:07:32.742Z,1025.67
2018-06-20T00:09:00.163Z,1025.69
2018-06-20T00:10:27.477Z,1025.72
2018-06-20T00:11:54.877Z,1025.71
2018-06-20T00:13:22.259Z,1025.74
2018-06-20T00:14:49.854Z,1025.72
2018-06-20T00:16:17.040Z,1025.70
2018-06-20T00:17:44.538Z,1025.67
2018-06-20T00:19:12.187Z,1025.67
2018-06-20T00:20:39.684Z,1025.65
2018-06-20T00:22:07.014Z,1025.64
2018-06-20T00:23:34.346Z,1025.63
2018-06-20T00:25:01.651Z,1025.60
2018-06-20T00:26:29.170Z,1025.58
2018-06-20T00:27:56.980Z,1025.61
2018-06-20T00:29:24.194Z,1025.61
2018-06-20T00:30:51.535Z,1025.60
2018-06-20T00:32:19.094Z,1025.61
2018-06-20T00:33:46.373Z,1025.59
2018-06-20T00:35:13.169Z,1025.57
2018-06-20T00:36:40.830Z,1025.57
2018-06-20T00:38:08.182Z,1025.58
2018-06-20T00:39:35.544Z,1025.55
2018-06-20T00:41:02.617Z,1025.53
2018-06-20T00:42:30.029Z,1025.53
2018-06-20T00:43:57.562Z,1025.52
2018-06-20T00:45:24.830Z,1025.53
2018-06-20T00:46:52.129Z,1025.54
2018-06-20T00:48:19.769Z,1025.55
2018-06-20T00:49:46.897Z,1025.57
2018-06-20T00:51:14.404Z,1025.57
2018-06-20T00:52:41.739Z,1025.56
2018-06-20T00:54:09.036Z,1025.54
2018-06-20T00:55:36.655Z,1025.55
2018-06-20T00:57:04.138Z,1025.55
2018-06-20T00:58:31.280Z,1025.52
2018-06-20T00:59:58.694Z,1025.51
2018-06-20T01:01:25.991Z,1025.53
2018-06-20T01:02:53.433Z,1025.53
2018-06-20T01:04:20.946Z,1025.52
2018-06-20T01:05:48.480Z,1025.48
2018-06-20T01:07:16.063Z,1025.47
2018-06-20T01:08:43.569Z,1025.48
2018-06-20T01:10:10.825Z,1025.52
2018-06-20T01:11:38.261Z,1025.53
2018-06-20T01:13:05.693Z,1025.56
2018-06-20T01:14:33.049Z,1025.55
2018-06-20T01:16:00.418Z,1025.58
2018-06-20T01:17:27.727Z,1025.58
2018-06-20T01:18:55.212Z,1025.61
2018-06-20T01:20:22.582Z,1025.64
2018-06-20T01:21:49.840Z,1025.66
2018-06-20T01:23:17.242Z,1025.67
2018-06-20T01:24:44.659Z,1025.72
2018-06-20T01:26:12.146Z,1025.71
2018-06-20T01:27:39.468Z,1025.72
2018-06-20T01:29:06.626Z,1025.73
2018-06-20T01:30:33.638Z,1025.76
2018-06-20T01:32:01.188Z,1025.76
2018-06-20T01:33:28.241Z,1025.76
2018-06-20T01:34:55.532Z,1025.72
2018-06-20T01:36:22.943Z,1025.72
2018-06-20T01:37:50.396Z,1025.67
2018-06-20T01:39:17.933Z,1025.69
2018-06-20T01:40:45.288Z,1025.68
2018-06-20T01:42:12.746Z,1025.66
2018-06-20T01:43:40.172Z,1025.64
2018-06-20T01:45:07.352Z,1025.64
2018-06-20T01:46:34.580Z,1025.60
2018-06-20T01:48:02.117Z,1025.61
2018-06-20T01:49:29.486Z,1025.61
2018-06-20T01:50:56.877Z,1025.61
2018-06-20T01:52:24.209Z,1025.63
2018-06-20T01:53:51.391Z,1025.67
2018-06-20T01:55:18.618Z,1025.70
2018-06-20T01:56:45.896Z,1025.68
2018-06-20T01:58:13.214Z,1025.67
2018-06-20T01:59:40.572Z,1025.66
2018-06-20T02:01:07.853Z,1025.63
2018-06-20T02:02:35.179Z,1025.63
2018-06-20T02:04:02.383Z,1025.61
2018-06-20T02:05:29.791Z,1025.60
2018-06-20T02:06:57.282Z,1025.62
2018-06-20T02:08:24.618Z,1025.65
2018-06-20T02:09:51.965Z,1025.64
2018-06-20T02:11:19.213Z,1025.64
2018-06-20T02:12:46.608Z,1025.66
2018-06-20T02:14:14.022Z,1025.67
2018-06-20T02:15:41.686Z,1025.65
2018-06-20T02:17:09.031Z,1025.64
2018-06-20T02:18:36.130Z,1025.64
2018-06-20T02:20:03.578Z,1025.61
2018-06-20T02:21:30.990Z,1025.58
2018-06-20T02:22:58.173Z,1025.58
2018-06-20T02:24:25.864Z,1025.56
2018-06-20T02:25:53.098Z,1025.60
2018-06-20T02:27:20.564Z,1025.60
2018-06-20T02:28:48.002Z,1025.61
2018-06-20T02:30:15.553Z,1025.63
2018-06-20T02:31:42.942Z,1025.66
2018-06-20T02:33:10.122Z,1025.64
2018-06-20T02:34:37.533Z,1025.65
2018-06-20T02:36:04.773Z,1025.66
2018-06-20T02:37:32.157Z,1025.66
2018-06-20T02:38:59.526Z,1025.67
2018-06-20T02:40:26.915Z,1025.68
2018-06-20T02:41:54.484Z,1025.68
2018-06-20T02:43:22.012Z,1025.67
2018-06-20T02:44:49.440Z,1025.68
2018-06-20T02:46:17.011Z,1025.69
2018-06-20T02:47:44.407Z,1025.69
2018-06-20T02:49:11.970Z,1025.68
2018-06-20T02:50:39.407Z,1025.70
2018-06-20T02:52:06.750Z,1025.71
2018-06-20T02:53:34.263Z,1025.72
2018-06-20T02:55:01.586Z,1025.73
2018-06-20T02:56:28.895Z,1025.68
2018-06-20T02:57:56.092Z,1025.67
2018-06-20T02:59:23.645Z,1025.65
2018-06-20T03:00:50.920Z,1025.66
2018-06-20T03:02:18.295Z,1025.67
2018-06-20T03:03:45.746Z,1025.68
2018-06-20T03:05:12.920Z,1025.68
2018-06-20T03:06:40.159Z,1025.68
2018-06-20T03:08:07.392Z,1025.66
2018-06-20T03:09:34.688Z,1025.64
2018-06-20T03:11:01.992Z,1025.61
2018-06-20T03:12:29.318Z,1025.61
2018-06-20T03:13:56.745Z,1025.60
2018-06-20T03:15:24.019Z,1025.61
2018-06-20T03:16:51.560Z,1025.61
2018-06-20T03:18:19.007Z,1025.61
2018-06-20T03:19:46.661Z,1025.62
2018-06-20T03:21:13.885Z,1025.62
2018-06-20T03:22:41.196Z,1025.62
2018-06-20T03:24:08.654Z,1025.62
2018-06-20T03:25:36.179Z,1025.63
2018-06-20T03:27:03.559Z,1025.65
2018-06-20T03:28:30.924Z,1025.66
2018-06-20T03:29:58.370Z,1025.69
2018-06-20T03:31:25.923Z,1025.68
2018-06-20T03:32:53.272Z,1025.68
2018-06-20T03:34:20.900Z,1025.66
2018-06-20T03:35:48.210Z,1025.66
2018-06-20T03:37:15.536Z,1025.65
2018-06-20T03:38:43.105Z,1025.64
2018-06-20T03:40:10.310Z,1025.64
2018-06-20T03:41:37.652Z,1025.63
2018-06-20T03:43:05.023Z,1025.64
2018-06-20T03:44:32.450Z,1025.67
2018-06-20T03:45:59.890Z,1025.64
2018-06-20T03:47:27.262Z,1025.64
2018-06-20T03:48:54.831Z,1025.65
2018-06-20T03:50:22.460Z,1025.65
2018-06-20T03:51:49.921Z,1025.65
2018-06-20T03:53:17.154Z,1025.60
2018-06-20T03:54:44.810Z,1025.57
2018-06-20T03:56:12.193Z,1025.53
2018-06-20T03:57:39.948Z,1025.52
2018-06-20T03:59:07.436Z,1025.48
2018-06-20T04:00:35.027Z,1025.48
2018-06-20T04:02:02.592Z,1025.46
2018-06-20T04:03:29.915Z,1025.46
2018-06-20T04:04:57.591Z,1025.45
2018-06-20T04:06:24.965Z,1025.42
2018-06-20T04:07:52.486Z,1025.41
2018-06-20T04:09:19.782Z,1025.39
2018-06-20T04:10:47.465Z,1025.39
2018-06-20T04:12:14.876Z,1025.37
2018-06-20T04:13:42.341Z,1025.37
2018-06-20T04:15:09.952Z,1025.38
2018-06-20T04:16:37.178Z,1025.38
2018-06-20T04:18:04.640Z,1025.40
2018-06-20T04:19:32.114Z,1025.42
2018-06-20T04:20:59.687Z,1025.43
2018-06-20T04:22:26.934Z,1025.41
2018-06-20T04:23:54.311Z,1025.45
2018-06-20T04:25:21.753Z,1025.45
2018-06-20T04:26:49.277Z,1025.47
2018-06-20T04:28:16.711Z,1025.47
2018-06-20T04:29:44.306Z,1025.50
2018-06-20T04:31:11.870Z,1025.50
2018-06-20T04:32:39.174Z,1025.48
2018-06-20T04:34:06.478Z,1025.45
2018-06-20T04:35:33.241Z,1025.48
2018-06-20T04:37:00.470Z,1025.49
2018-06-20T04:38:27.876Z,1025.48
2018-06-20T04:39:55.280Z,1025.45
2018-06-20T04:41:22.540Z,1025.44
2018-06-20T04:42:50.013Z,1025.42
2018-06-20T04:44:17.232Z,1025.45
2018-06-20T04:45:44.383Z,1025.44
2018-06-20T04:47:11.935Z,1025.43
2018-06-20T04:48:39.445Z,1025.39
2018-06-20T04:50:06.914Z,1025.38
2018-06-20T04:51:34.229Z,1025.39
2018-06-20T04:53:01.757Z,1025.38
2018-06-20T04:54:29.219Z,1025.37
2018-06-20T04:55:56.528Z,1025.37
2018-06-20T04:57:24.045Z,1025.39
2018-06-20T04:58:51.386Z,1025.38
2018-06-20T05:00:18.836Z,1025.37
2018-06-20T05:01:46.291Z,1025.38
2018-06-20T05:03:13.628Z,1025.38
2018-06-20T05:04:41.027Z,1025.37
2018-06-20T05:06:08.452Z,1025.34
2018-06-20T05:07:35.817Z,1025.35
2018-06-20T05:09:03.451Z,1025.34
2018-06-20T05:10:29.941Z,1025.32
2018-06-20T05:11:57.377Z,1025.31
2018-06-20T05:13:24.842Z,1025.33
2018-06-20T05:14:51.960Z,1025.33
2018-06-20T05:16:19.042Z,1025.31
2018-06-20T05:17:46.492Z,1025.32
2018-06-20T05:19:13.911Z,1025.33
2018-06-20T05:20:41.354Z,1025.35
2018-06-20T05:22:08.544Z,1025.33
2018-06-20T05:23:36.052Z,1025.32
2018-06-20T05:25:03.532Z,1025.30
2018-06-20T05:26:30.395Z,1025.24
2018-06-20T05:27:57.766Z,1025.25
2018-06-20T05:29:25.212Z,1025.27
2018-06-20T05:30:52.720Z,1025.28
2018-06-20T05:32:20.255Z,1025.25
2018-06-20T05:33:47.338Z,1025.25
2018-06-20T05:35:14.836Z,1025.20
2018-06-20T05:36:42.307Z,1025.20
2018-06-20T05:38:09.860Z,1025.16
2018-06-20T05:39:37.251Z,1025.16
2018-06-20T05:41:04.100Z,1025.10
2018-06-20T05:42:31.643Z,1025.04
2018-06-20T05:43:59.390Z,1025.01
2018-06-20T05:45:26.973Z,1025.01
2018-06-20T05:46:54.866Z,1025.00
2018-06-20T05:48:22.471Z,1024.98
2018-06-20T05:49:50.125Z,1024.98
2018-06-20T05:51:17.805Z,1024.98
2018-06-20T05:52:45.414Z,1024.94
2018-06-20T05:54:12.870Z,1024.89
2018-06-20T05:55:40.390Z,1024.85
2018-06-20T05:57:08.041Z,1024.85
2018-06-20T05:58:35.573Z,1024.76
2018-06-20T06:00:03.210Z,1024.75
2018-06-20T06:01:30.986Z,1024.74
2018-06-20T06:02:58.214Z,1024.74
2018-06-20T06:04:25.826Z,1024.74
2018-06-20T06:05:53.363Z,1024.74
2018-06-20T06:07:21.160Z,1024.73
2018-06-20T06:08:48.383Z,1024.72
2018-06-20T06:10:16.141Z,1024.77
2018-06-20T06:11:43.446Z,1024.76
2018-06-20T06:13:11.108Z,1024.74
2018-06-20T06:14:38.589Z,1024.75
2018-06-20T06:16:06.220Z,1024.75
2018-06-20T06:17:33.783Z,1024.79
2018-06-20T06:19:01.353Z,1024.76
2018-06-20T06:20:27.930Z,1024.77
2018-06-20T06:21:55.623Z,1024.79
2018-06-20T06:23:23.170Z,1024.82
2018-06-20T06:24:50.567Z,1024.83
2018-06-20T06:26:17.761Z,1024.82
2018-06-20T06:27:45.455Z,1024.78
2018-06-20T06:29:13.118Z,1024.74
2018-06-20T06:30:40.835Z,1024.72
2018-06-20T06:32:08.377Z,1024.76
2018-06-20T06:33:36.280Z,1024.71
2018-06-20T06:35:03.767Z,1024.69
2018-06-20T06:36:31.250Z,1024.66
2018-06-20T06:37:58.824Z,1024.57
2018-06-20T06:39:26.542Z,1024.53
2018-06-20T06:40:54.247Z,1024.50
2018-06-20T06:42:21.939Z,1024.51
2018-06-20T06:43:49.172Z,1024.52
2018-06-20T06:45:16.933Z,1024.47
2018-06-20T06:46:43.906Z,1024.47
2018-06-20T06:48:11.478Z,1024.43
2018-06-20T06:49:39.242Z,1024.40
2018-06-20T06:51:07.026Z,1024.40
2018-06-20T06:52:34.688Z,1024.44
2018-06-20T06:54:02.068Z,1024.41
2018-06-20T06:55:29.697Z,1024.41
2018-06-20T06:56:57.288Z,1024.42
2018-06-20T06:58:24.983Z,1024.44
2018-06-20T06:59:52.515Z,1024.46
2018-06-20T07:01:20.016Z,1024.48
2018-06-20T07:02:47.594Z,1024.45
2018-06-20T07:04:15.095Z,1024.44
2018-06-20T07:05:42.587Z,1024.46
2018-06-20T07:07:10.289Z,1024.46
2018-06-20T07:08:37.870Z,1024.47
2018-06-20T07:10:05.340Z,1024.55
2018-06-20T07:11:32.759Z,1024.56
2018-06-20T07:13:00.243Z,1024.56
2018-06-20T07:14:27.814Z,1024.53
2018-06-20T07:15:55.447Z,1024.51
2018-06-20T07:17:23.006Z,1024.48
2018-06-20T07:18:50.245Z,1024.50
2018-06-20T07:20:17.593Z,1024.49
2018-06-20T07:21:45.121Z,1024.49
2018-06-20T07:23:12.451Z,1024.45
2018-06-20T07:24:39.967Z,1024.41
2018-06-20T07:26:07.649Z,1024.44
2018-06-20T07:27:35.148Z,1024.37
2018-06-20T07:29:02.648Z,1024.35
2018-06-20T07:30:30.126Z,1024.37
2018-06-20T07:31:57.908Z,1024.39
2018-06-20T07:33:25.506Z,1024.41
2018-06-20T07:34:52.327Z,1024.40
2018-06-20T07:36:20.196Z,1024.41
2018-06-20T07:37:47.429Z,1024.41
2018-06-20T07:39:15.184Z,1024.42
2018-06-20T07:40:42.675Z,1024.45
2018-06-20T07:42:10.048Z,1024.40
2018-06-20T07:43:37.881Z,1024.36
2018-06-20T07:45:05.195Z,1024.35
2018-06-20T07:46:32.525Z,1024.34
2018-06-20T07:48:00.059Z,1024.34
2018-06-20T07:49:27.375Z,1024.30
2018-06-20T07:50:54.805Z,1024.26
2018-06-20T07:52:22.363Z,1024.23
2018-06-20T07:53:50.116Z,1024.21
2018-06-20T07:55:17.613Z,1024.21
2018-06-20T07:56:45.112Z,1024.28
2018-06-20T07:58:12.209Z,1024.25
2018-06-20T07:59:39.850Z,1024.27
2018-06-20T08:01:07.431Z,1024.25
2018-06-20T08:02:34.782Z,1024.20
2018-06-20T08:04:01.935Z,1024.18
2018-06-20T08:05:29.689Z,1024.18
2018-06-20T08:06:56.347Z,1024.13
2018-06-20T08:08:24.039Z,1024.12
2018-06-20T08:09:51.324Z,1024.18
2018-06-20T08:11:18.886Z,1024.15
2018-06-20T08:12:46.567Z,1024.16
2018-06-20T08:14:14.330Z,1024.11
2018-06-20T08:15:41.377Z,1024.14
2018-06-20T08:17:08.641Z,1024.07
2018-06-20T08:18:35.994Z,1024.11
2018-06-20T08:20:03.131Z,1024.10
2018-06-20T08:21:30.954Z,1024.10
2018-06-20T08:22:58.479Z,1024.07
2018-06-20T08:24:26.034Z,1024.08
2018-06-20T08:25:53.331Z,1024.07
2018-06-20T08:27:20.353Z,1024.01
2018-06-20T08:28:47.770Z,1023.99
2018-06-20T08:30:15.294Z,1024.04
2018-06-20T08:31:43.831Z,1024.01
2018-06-20T08:33:10.107Z,1023.99
2018-06-20T08:34:37.817Z,1023.99
2018-06-20T08:36:05.440Z,1023.92
2018-06-20T08:37:32.942Z,1023.91
2018-06-20T08:38:59.870Z,1023.87
2018-06-20T08:40:27.421Z,1023.88
2018-06-20T08:41:54.939Z,1023.87
2018-06-20T08:43:22.775Z,1023.82
2018-06-20T08:44:50.228Z,1023.88
2018-06-20T08:46:17.997Z,1023.83
2018-06-20T08:47:45.437Z,1023.80
2018-06-20T08:49:13.101Z,1023.78
2018-06-20T08:50:40.453Z,1023.76
2018-06-20T08:52:08.039Z,1023.72
2018-06-20T08:53:35.622Z,1023.73
2018-06-20T08:55:03.208Z,1023.72
2018-06-20T08:56:30.867Z,1023.70
2018-06-20T08:57:58.476Z,1023.67
2018-06-20T08:59:26.033Z,1023.63
2018-06-20T09:00:53.806Z,1023.59
2018-06-20T09:02:21.454Z,1023.58
2018-06-20T09:03:49.017Z,1023.57
2018-06-20T09:05:16.411Z,1023.57
2018-06-20T09:06:43.934Z,1023.47
2018-06-20T09:08:11.438Z,1023.55
2018-06-20T09:09:38.789Z,1023.50
2018-06-20T09:11:06.468Z,1023.46
2018-06-20T09:12:33.893Z,1023.44
2018-06-20T09:14:01.477Z,1023.45
2018-06-20T09:15:29.116Z,1023.45
2018-06-20T09:16:56.243Z,1023.39
2018-06-20T09:18:23.792Z,1023.44
2018-06-20T09:19:51.541Z,1023.40
2018-06-20T09:21:19.279Z,1023.40
2018-06-20T09:22:46.769Z,1023.39
2018-06-20T09:24:14.191Z,1023.30
2018-06-20T09:25:41.228Z,1023.32
2018-06-20T09:27:08.713Z,1023.31
2018-06-20T09:28:36.412Z,1023.29
2018-06-20T09:30:03.869Z,1023.31
2018-06-20T09:31:31.198Z,1023.23
2018-06-20T09:32:58.774Z,1023.26
2018-06-20T09:34:26.181Z,1023.32
2018-06-20T09:35:53.920Z,1023.29
2018-06-20T09:37:21.213Z,1023.27
2018-06-20T09:38:48.674Z,1023.25
2018-06-20T09:40:16.156Z,1023.25
2018-06-20T09:41:43.794Z,1023.18
2018-06-20T09:43:11.446Z,1023.20
2018-06-20T09:44:39.073Z,1023.18
2018-06-20T09:46:06.376Z,1023.16
2018-06-20T09:47:33.905Z,1023.17
2018-06-20T09:49:01.344Z,1023.18
2018-06-20T09:50:28.986Z,1023.14
2018-06-20T09:51:56.524Z,1023.12
2018-06-20T09:53:23.855Z,1023.13
2018-06-20T09:54:51.599Z,1023.08
2018-06-20T09:56:19.101Z,1023.05
2018-06-20T09:57:46.589Z,1023.05
2018-06-20T09:59:14.133Z,1023.02
2018-06-20T10:00:41.772Z,1022.98
2018-06-20T10:02:08.627Z,1022.98
2018-06-20T10:03:36.009Z,1022.99
2018-06-20T10:05:03.513Z,1022.94
2018-06-20T10:06:30.948Z,1022.93
2018-06-20T10:07:58.292Z,1022.92
2018-06-20T10:09:25.833Z,1022.91
2018-06-20T10:10:53.525Z,1022.85
2018-06-20T10:12:21.041Z,1022.85
2018-06-20T10:13:48.569Z,1022.89
2018-06-20T10:15:16.150Z,1022.86
2018-06-20T10:16:43.766Z,1022.83
2018-06-20T10:18:11.411Z,1022.81
2018-06-20T10:19:38.983Z,1022.80
2018-06-20T10:21:06.823Z,1022.77
2018-06-20T10:22:34.261Z,1022.73
2018-06-20T10:24:01.756Z,1022.70
2018-06-20T10:25:29.590Z,1022.68
2018-06-20T10:26:57.304Z,1022.71
2018-06-20T10:28:24.726Z,1022.74
2018-06-20T10:29:52.391Z,1022.70
2018-06-20T10:31:19.904Z,1022.72
2018-06-20T10:32:47.233Z,1022.72
2018-06-20T10:34:15.008Z,1022.71
2018-06-20T10:35:42.570Z,1022.69
2018-06-20T10:37:10.190Z,1022.67
2018-06-20T10:38:37.822Z,1022.62
2018-06-20T10:40:05.516Z,1022.61
2018-06-20T10:41:32.964Z,1022.59
2018-06-20T10:43:01.471Z,1022.60
2018-06-20T10:44:28.157Z,1022.63
2018-06-20T10:45:55.333Z,1022.52
2018-06-20T10:47:23.045Z,1022.59
2018-06-20T10:48:50.656Z,1022.55
2018-06-20T10:50:18.215Z,1022.56
2018-06-20T10:51:45.946Z,1022.46
2018-06-20T10:53:13.618Z,1022.49
2018-06-20T10:54:41.066Z,1022.44
2018-06-20T10:56:08.548Z,1022.42
2018-06-20T10:57:36.156Z,1022.43
2018-06-20T10:59:03.601Z,1022.45
2018-06-20T11:00:31.187Z,1022.47
2018-06-20T11:01:58.810Z,1022.46
2018-06-20T11:03:25.819Z,1022.42
2018-06-20T11:04:53.205Z,1022.41
2018-06-20T11:06:20.774Z,1022.35
2018-06-20T11:07:48.366Z,1022.34
2018-06-20T11:09:15.843Z,1022.34
2018-06-20T11:10:43.404Z,1022.36
2018-06-20T11:12:10.879Z,1022.30
2018-06-20T11:13:38.504Z,1022.30
2018-06-20T11:15:05.964Z,1022.31
2018-06-20T11:16:33.508Z,1022.23
2018-06-20T11:18:00.513Z,1022.26
2018-06-20T11:19:27.897Z,1022.20
2018-06-20T11:20:55.314Z,1022.18
2018-06-20T11:22:23.161Z,1022.17
2018-06-20T11:23:50.785Z,1022.14
2018-06-20T11:25:18.552Z,1022.11
2018-06-20T11:26:45.531Z,1022.07
2018-06-20T11:28:13.142Z,1022.04
2018-06-20T11:29:40.676Z,1022.03
2018-06-20T11:31:08.138Z,1022.04
2018-06-20T11:32:35.790Z,1022.05
2018-06-20T11:34:03.216Z,1022.05
2018-06-20T11:35:30.249Z,1021.99
2018-06-20T11:36:57.880Z,1021.91
2018-06-20T11:38:25.104Z,1021.91
2018-06-20T11:39:52.152Z,1021.89
2018-06-20T11:41:19.778Z,1021.86
2018-06-20T11:42:47.387Z,1021.80
2018-06-20T11:44:15.102Z,1021.78
2018-06-20T11:45:42.649Z,1021.76
2018-06-20T11:47:10.297Z,1021.75
2018-06-20T11:48:37.821Z,1021.72
2018-06-20T11:50:05.409Z,1021.71
2018-06-20T11:51:32.713Z,1021.70
2018-06-20T11:53:00.420Z,1021.67
2018-06-20T11:54:28.015Z,1021.64
2018-06-20T11:55:55.680Z,1021.67
2018-06-20T11:57:22.878Z,1021.63
2018-06-20T11:58:50.523Z,1021.56
2018-06-20T12:00:18.069Z,1021.54
2018-06-20T12:01:53.853Z,1021.46
2018-06-20T12:03:13.114Z,1021.45
2018-06-20T12:04:40.718Z,1021.41
2018-06-20T12:06:08.283Z,1021.31
2018-06-20T12:07:35.546Z,1021.27
2018-06-20T12:09:03.107Z,1021.24
2018-06-20T12:10:30.814Z,1021.32
2018-06-20T12:11:58.009Z,1021.28
2018-06-20T12:13:25.402Z,1021.24
2018-06-20T12:14:52.960Z,1021.26
2018-06-20T12:16:20.527Z,1021.20
2018-06-20T12:17:48.030Z,1021.20
2018-06-20T12:19:15.675Z,1021.20
2018-06-20T12:20:43.111Z,1021.15
2018-06-20T12:22:10.866Z,1021.04
2018-06-20T12:23:38.369Z,1021.13
2018-06-20T12:25:05.912Z,1021.09
2018-06-20T12:26:33.752Z,1021.09
2018-06-20T12:28:00.881Z,1021.05
2018-06-20T12:29:28.204Z,1021.08
2018-06-20T12:30:55.815Z,1021.09
2018-06-20T12:32:23.288Z,1021.04
2018-06-20T12:33:50.963Z,1021.07
2018-06-20T12:35:18.362Z,1021.06
2018-06-20T12:36:45.894Z,1021.01
2018-06-20T12:38:13.596Z,1021.05
2018-06-20T12:39:41.127Z,1021.01
2018-06-20T12:41:08.655Z,1021.00
2018-06-20T12:42:35.302Z,1021.05
2018-06-20T12:44:02.720Z,1021.03
2018-06-20T12:45:30.415Z,1020.98
2018-06-20T12:46:59.058Z,1020.99
2018-06-20T12:48:25.518Z,1021.03
2018-06-20T12:49:52.739Z,1020.98
2018-06-20T12:51:20.612Z,1020.98
2018-06-20T12:52:48.279Z,1020.92
2018-06-20T12:54:15.968Z,1020.97
2018-06-20T12:55:43.662Z,1020.87
2018-06-20T12:57:14.204Z,1020.84
2018-06-20T12:58:38.797Z,1020.86
2018-06-20T13:00:06.430Z,1020.84
2018-06-20T13:01:33.907Z,1020.79
2018-06-20T13:03:01.568Z,1020.80
2018-06-20T13:04:29.226Z,1020.78
2018-06-20T13:05:56.765Z,1020.73
2018-06-20T13:07:24.360Z,1020.74
2018-06-20T13:08:51.952Z,1020.72
2018-06-20T13:10:19.731Z,1020.74
2018-06-20T13:11:47.289Z,1020.67
2018-06-20T13:13:14.887Z,1020.70
2018-06-20T13:14:42.486Z,1020.65
2018-06-20T13:16:10.148Z,1020.69
2018-06-20T13:17:37.472Z,1020.67
2018-06-20T13:19:04.977Z,1020.65
2018-06-20T13:20:32.626Z,1020.64
2018-06-20T13:22:00.348Z,1020.67
2018-06-20T13:23:27.963Z,1020.66
2018-06-20T13:24:55.628Z,1020.63
2018-06-20T13:26:23.238Z,1020.58
2018-06-20T13:27:50.964Z,1020.56
2018-06-20T13:29:18.537Z,1020.57
2018-06-20T13:30:46.381Z,1020.57
2018-06-20T13:32:14.049Z,1020.53
2018-06-20T13:33:41.283Z,1020.57
2018-06-20T13:35:09.079Z,1020.54
2018-06-20T13:36:36.762Z,1020.56
2018-06-20T13:38:04.244Z,1020.50
2018-06-20T13:39:31.729Z,1020.45
2018-06-20T13:40:59.164Z,1020.51
2018-06-20T13:42:26.568Z,1020.47
2018-06-20T13:43:54.175Z,1020.43
2018-06-20T13:45:21.754Z,1020.38
2018-06-20T13:46:49.478Z,1020.40
2018-06-20T13:48:16.948Z,1020.41
2018-06-20T13:49:44.525Z,1020.33
2018-06-20T13:51:12.178Z,1020.32
2018-06-20T13:52:39.426Z,1020.29
2018-06-20T13:54:06.836Z,1020.29
2018-06-20T13:55:34.398Z,1020.23
2018-06-20T13:57:01.960Z,1020.19
2018-06-20T13:58:29.288Z,1020.16
2018-06-20T13:59:57.045Z,1020.12
2018-06-20T14:01:24.744Z,1020.11
2018-06-20T14:02:52.461Z,1020.09
2018-06-20T14:04:19.870Z,1020.04
2018-06-20T14:05:46.542Z,1020.07
2018-06-20T14:07:14.331Z,1020.03
2018-06-20T14:08:41.948Z,1020.01
2018-06-20T14:10:09.644Z,1020.00
2018-06-20T14:11:37.191Z,1020.08
2018-06-20T14:13:04.560Z,1020.01
2018-06-20T14:14:32.158Z,1019.98
2018-06-20T14:15:59.729Z,1019.98
2018-06-20T14:17:27.062Z,1019.99
2018-06-20T14:18:54.648Z,1019.99
2018-06-20T14:20:22.237Z,1019.95
2018-06-20T14:21:50.124Z,1019.91
2018-06-20T14:23:17.996Z,1019.90
2018-06-20T14:24:45.392Z,1019.96
2018-06-20T14:26:12.980Z,1019.97
2018-06-20T14:27:40.494Z,1019.89
2018-06-20T14:29:07.971Z,1019.94
2018-06-20T14:30:35.526Z,1019.89
2018-06-20T14:32:03.010Z,1019.83
2018-06-20T14:33:30.617Z,1019.83
2018-06-20T14:34:58.227Z,1019.85
2018-06-20T14:36:25.692Z,1019.82
2018-06-20T14:37:53.400Z,1019.83
2018-06-20T14:39:21.226Z,1019.81
2018-06-20T14:40:48.456Z,1019.85
2018-06-20T14:42:16.023Z,1019.77
2018-06-20T14:43:43.714Z,1019.77
2018-06-20T14:45:11.253Z,1019.77
2018-06-20T14:46:38.845Z,1019.72
2018-06-20T14:48:06.452Z,1019.71
2018-06-20T14:49:34.184Z,1019.76
2018-06-20T14:51:02.592Z,1019.70
2018-06-20T14:52:28.961Z,1019.68
2018-06-20T14:53:56.598Z,1019.66
2018-06-20T14:55:24.232Z,1019.70
2018-06-20T14:56:51.852Z,1019.65
2018-06-20T14:58:19.637Z,1019.67
2018-06-20T14:59:47.214Z,1019.66
2018-06-20T15:01:14.819Z,1019.69
2018-06-20T15:02:42.428Z,1019.65
2018-06-20T15:04:10.037Z,1019.64
2018-06-20T15:05:37.690Z,1019.62
2018-06-20T15:07:05.273Z,1019.60
2018-06-20T15:08:32.910Z,1019.62
2018-06-20T15:10:00.509Z,1019.54
2018-06-20T15:11:27.981Z,1019.53
2018-06-20T15:12:55.611Z,1019.58
2018-06-20T15:14:23.285Z,1019.52
2018-06-20T15:15:51.004Z,1019.52
2018-06-20T15:17:18.623Z,1019.53
2018-06-20T15:18:46.160Z,1019.47
2018-06-20T15:20:13.707Z,1019.44
2018-06-20T15:21:41.064Z,1019.39
2018-06-20T15:23:08.726Z,1019.34
2018-06-20T15:24:36.328Z,1019.32
2018-06-20T15:26:04.014Z,1019.36
2018-06-20T15:27:31.530Z,1019.35
2018-06-20T15:28:59.290Z,1019.37
2018-06-20T15:30:26.914Z,1019.35
2018-06-20T15:31:54.600Z,1019.31
2018-06-20T15:33:22.193Z,1019.28
2018-06-20T15:34:49.864Z,1019.24
2018-06-20T15:36:17.589Z,1019.24
2018-06-20T15:37:45.291Z,1019.25
2018-06-20T15:39:12.703Z,1019.19
2018-06-20T15:40:40.170Z,1019.19
2018-06-20T15:42:07.789Z,1019.13
2018-06-20T15:43:35.353Z,1019.12
2018-06-20T15:45:03.114Z,1019.11
2018-06-20T15:46:30.810Z,1019.10
2018-06-20T15:47:58.317Z,1019.13
2018-06-20T15:49:25.919Z,1019.08
2018-06-20T15:50:53.443Z,1019.09
2018-06-20T15:52:20.975Z,1019.08
2018-06-20T15:53:48.646Z,1019.08
2018-06-20T15:55:16.133Z,1019.04
2018-06-20T15:56:43.659Z,1018.98
2018-06-20T15:58:11.162Z,1018.97
2018-06-20T15:59:38.640Z,1018.94
2018-06-20T16:01:06.408Z,1018.97
2018-06-20T16:02:34.044Z,1018.89
2018-06-20T16:04:01.384Z,1018.88
2018-06-20T16:05:29.013Z,1018.88
2018-06-20T16:06:56.513Z,1018.88
2018-06-20T16:08:23.566Z,1018.85
2018-06-20T16:09:50.874Z,1018.87
2018-06-20T16:11:18.371Z,1018.81
2018-06-20T16:12:46.045Z,1018.80
2018-06-20T16:14:13.363Z,1018.76
2018-06-20T16:15:41.385Z,1018.74
2018-06-20T16:17:09.062Z,1018.72
2018-06-20T16:18:36.685Z,1018.70
2018-06-20T16:20:04.469Z,1018.71
2018-06-20T16:21:32.106Z,1018.71
2018-06-20T16:22:59.802Z,1018.71
2018-06-20T16:24:27.461Z,1018.65
2018-06-20T16:25:54.995Z,1018.63
2018-06-20T16:27:22.799Z,1018.60
2018-06-20T16:28:50.156Z,1018.59
2018-06-20T16:30:17.923Z,1018.58
2018-06-20T16:31:45.361Z,1018.54
2018-06-20T16:33:12.764Z,1018.55
2018-06-20T16:34:40.533Z,1018.53
2018-06-20T16:36:08.159Z,1018.51
2018-06-20T16:37:35.881Z,1018.54
2018-06-20T16:39:03.499Z,1018.51
2018-06-20T16:40:31.179Z,1018.49
2018-06-20T16:41:58.930Z,1018.49
2018-06-20T16:43:26.502Z,1018.45
2018-06-20T16:44:53.921Z,1018.42
2018-06-20T16:46:21.556Z,1018.40
2018-06-20T16:47:48.981Z,1018.40
2018-06-20T16:49:16.609Z,1018.39
2018-06-20T16:50:44.086Z,1018.39
2018-06-20T16:52:11.672Z,1018.34
2018-06-20T16:53:39.293Z,1018.34
2018-06-20T16:55:07.018Z,1018.33
2018-06-20T16:56:34.497Z,1018.29
2018-06-20T16:58:02.086Z,1018.23
2018-06-20T16:59:29.622Z,1018.21
2018-06-20T17:00:57.289Z,1018.17
2018-06-20T17:02:24.845Z,1018.19
2018-06-20T17:03:52.244Z,1018.19
2018-06-20T17:05:19.809Z,1018.20
2018-06-20T17:06:47.108Z,1018.19
2018-06-20T17:08:14.436Z,1018.18
2018-06-20T17:09:41.642Z,1018.22
2018-06-20T17:11:09.349Z,1018.18
2018-06-20T17:12:37.060Z,1018.17
2018-06-20T17:14:04.652Z,1018.17
2018-06-20T17:15:32.394Z,1018.15
2018-06-20T17:16:59.824Z,1018.15
2018-06-20T17:18:27.314Z,1018.13
2018-06-20T17:19:54.934Z,1018.11
2018-06-20T17:21:22.500Z,1018.09
2018-06-20T17:22:49.339Z,1018.09
2018-06-20T17:24:16.888Z,1018.07
2018-06-20T17:25:44.406Z,1018.06
2018-06-20T17:27:11.834Z,1018.07
2018-06-20T17:28:39.436Z,1018.03
2018-06-20T17:30:07.083Z,1017.99
2018-06-20T17:31:34.354Z,1017.97
2018-06-20T17:33:02.022Z,1017.97
2018-06-20T17:34:29.321Z,1017.98
2018-06-20T17:35:56.914Z,1017.97
2018-06-20T17:37:24.483Z,1017.97